createdAt,value
2023-04-14T00:04:55.306Z,1.38
2023-04-14T00:07:23.303Z,1.40
2023-04-14T00:09:51.084Z,1.50
2023-04-14T00:12:19.065Z,1.70
2023-04-14T00:14:47.113Z,1.30
2023-04-14T00:17:15.108Z,1.50
2023-04-14T00:19:44.286Z,1.60
2023-04-14T00:22:12.254Z,1.70
2023-04-14T00:24:43.531Z,1.60
2023-04-14T00:27:11.843Z,1.60
2023-04-14T00:29:39.914Z,1.60
2023-04-14T00:32:08.076Z,1.90
2023-04-14T00:34:35.949Z,2.30
2023-04-14T00:37:05.342Z,2.10
2023-04-14T00:39:33.306Z,1.80
2023-04-14T00:42:02.852Z,1.92
2023-04-14T00:44:31.183Z,2.30
2023-04-14T00:47:01.627Z,2.33
2023-04-14T00:49:29.865Z,2.75
2023-04-14T00:51:57.907Z,2.25
2023-04-14T00:54:29.428Z,2.20
2023-04-14T00:56:57.950Z,2.58
2023-04-14T00:59:25.885Z,2.85
2023-04-14T01:01:54.890Z,2.97
2023-04-14T01:04:24.820Z,3.28
2023-04-14T01:06:55.305Z,2.97
2023-04-14T01:09:24.235Z,3.65
2023-04-14T01:12:03.071Z,2.60
2023-04-14T01:14:41.689Z,2.75
2023-04-14T01:17:18.428Z,2.33
2023-04-14T01:20:03.591Z,2.60
2023-04-14T01:22:34.199Z,1.90
2023-04-14T01:25:22.144Z,2.22
2023-04-14T01:28:06.537Z,1.77
2023-04-14T01:30:48.787Z,1.65
2023-04-14T01:33:21.809Z,1.83
2023-04-14T01:38:24.853Z,1.63
2023-04-14T01:40:58.897Z,1.92
2023-04-14T01:43:29.878Z,1.98
2023-04-14T01:46:01.818Z,2.30
2023-04-14T01:48:33.349Z,2.00
2023-04-14T01:51:03.506Z,2.00
2023-04-14T01:53:36.768Z,2.00
2023-04-14T01:56:08.976Z,2.03
2023-04-14T01:58:38.331Z,1.90
2023-04-14T02:01:07.800Z,1.85
2023-04-14T02:03:38.960Z,2.10
2023-04-14T02:06:08.542Z,1.90
2023-04-14T02:08:39.830Z,1.67
2023-04-14T02:11:09.786Z,1.77
2023-04-14T02:13:40.456Z,2.10
2023-04-14T02:16:10.714Z,1.60
2023-04-14T02:18:42.449Z,1.88
2023-04-14T02:21:11.697Z,2.15
2023-04-14T02:23:39.578Z,1.85
2023-04-14T02:26:14.058Z,1.70
2023-04-14T02:28:47.203Z,2.10
2023-04-14T02:31:20.276Z,1.75
2023-04-14T02:33:54.543Z,2.00
2023-04-14T02:36:28.055Z,2.00
2023-04-14T02:39:01.606Z,1.92
2023-04-14T02:41:31.579Z,2.13
2023-04-14T02:44:06.887Z,1.85
2023-04-14T02:46:40.534Z,2.05
2023-04-14T02:49:14.572Z,2.13
2023-04-14T02:51:46.280Z,2.20
2023-04-14T02:54:16.502Z,2.20
2023-04-14T02:56:48.706Z,2.40
2023-04-14T02:59:19.438Z,2.15
2023-04-14T03:01:59.810Z,2.10
2023-04-14T03:04:30.640Z,2.33
2023-04-14T03:06:59.908Z,2.38
2023-04-14T03:09:28.456Z,2.20
2023-04-14T03:11:56.962Z,2.40
2023-04-14T03:14:26.245Z,2.60
2023-04-14T03:16:55.463Z,2.35
2023-04-14T03:19:26.416Z,2.22
2023-04-14T03:22:00.108Z,2.35
2023-04-14T03:24:31.245Z,2.20
2023-04-14T03:27:04.067Z,2.30
2023-04-14T03:29:35.704Z,2.57
2023-04-14T03:32:06.896Z,2.45
2023-04-14T03:34:42.135Z,2.42
2023-04-14T03:37:12.899Z,2.55
2023-04-14T03:40:05.205Z,2.80
2023-04-14T03:42:35.773Z,2.40
2023-04-14T03:45:05.037Z,2.42
2023-04-14T03:47:36.167Z,2.38
2023-04-14T03:50:09.148Z,2.60
2023-04-14T03:52:43.768Z,2.70
2023-04-14T03:55:13.613Z,2.72
2023-04-14T03:57:44.930Z,3.17
2023-04-14T04:00:15.874Z,2.55
2023-04-14T04:02:47.269Z,2.63
2023-04-14T04:05:16.069Z,3.33
2023-04-14T04:07:47.295Z,2.80
2023-04-14T04:10:16.299Z,3.22
2023-04-14T04:12:45.298Z,3.47
2023-04-14T04:15:13.949Z,3.17
2023-04-14T04:17:44.317Z,3.30
2023-04-14T04:20:16.364Z,3.00
2023-04-14T04:22:50.556Z,3.10
2023-04-14T04:25:19.671Z,3.03
2023-04-14T04:27:56.572Z,2.95
2023-04-14T04:30:26.175Z,3.03
2023-04-14T04:32:54.714Z,2.75
2023-04-14T04:35:24.752Z,2.65
2023-04-14T04:37:54.862Z,2.67
2023-04-14T04:40:22.751Z,3.10
2023-04-14T04:42:52.341Z,2.97
2023-04-14T04:45:31.107Z,3.30
2023-04-14T04:47:59.458Z,2.97
2023-04-14T04:50:27.306Z,3.13
2023-04-14T04:52:56.705Z,2.70
2023-04-14T04:55:24.545Z,2.72
2023-04-14T04:57:52.355Z,2.90
2023-04-14T05:00:22.972Z,2.67
2023-04-14T05:02:51.372Z,2.58
2023-04-14T05:05:19.333Z,2.60
2023-04-14T05:07:47.196Z,2.85
2023-04-14T05:10:16.444Z,2.83
2023-04-14T05:12:44.328Z,2.83
2023-04-14T05:15:12.740Z,2.60
2023-04-14T05:17:40.566Z,2.45
2023-04-14T05:20:09.267Z,2.38
2023-04-14T05:22:37.261Z,2.60
2023-04-14T05:25:05.560Z,2.78
2023-04-14T05:27:34.797Z,2.92
2023-04-14T05:30:02.614Z,2.80
2023-04-14T05:32:30.638Z,2.50
2023-04-14T05:34:58.801Z,2.72
2023-04-14T05:37:30.065Z,2.83
2023-04-14T05:39:57.988Z,2.92
2023-04-14T05:42:25.796Z,2.90
2023-04-14T05:44:54.961Z,3.13
2023-04-14T05:47:22.753Z,3.03
2023-04-14T05:49:50.630Z,2.97
2023-04-14T05:52:18.496Z,3.33
2023-04-14T05:54:46.342Z,2.90
2023-04-14T05:57:14.144Z,3.00
2023-04-14T05:59:43.061Z,2.75
2023-04-14T06:02:12.346Z,3.20
2023-04-14T06:04:40.376Z,3.20
2023-04-14T06:07:08.266Z,2.75
2023-04-14T06:09:36.152Z,3.20
2023-04-14T06:12:04.002Z,3.13
2023-04-14T06:14:31.853Z,2.90
2023-04-14T06:16:59.717Z,3.20
2023-04-14T06:19:28.988Z,3.08
2023-04-14T06:21:56.782Z,3.60
2023-04-14T06:24:24.615Z,3.03
2023-04-14T06:26:52.736Z,3.00
2023-04-14T06:29:20.692Z,3.05
2023-04-14T06:31:48.580Z,3.05
2023-04-14T06:34:16.467Z,3.00
2023-04-14T06:36:45.737Z,2.95
2023-04-14T06:39:13.750Z,2.97
2023-04-14T06:41:41.701Z,2.60
2023-04-14T06:44:11.102Z,2.72
2023-04-14T06:46:39.521Z,2.75
2023-04-14T06:49:08.337Z,2.63
2023-04-14T06:51:36.430Z,3.03
2023-04-14T06:54:05.822Z,3.25
2023-04-14T06:56:33.646Z,3.10
2023-04-14T06:59:01.517Z,2.60
2023-04-14T07:01:29.329Z,2.40
2023-04-14T07:03:57.273Z,2.75
2023-04-14T07:06:25.225Z,2.83
2023-04-14T07:08:54.177Z,2.83
2023-04-14T07:11:23.348Z,3.03
2023-04-14T07:13:51.181Z,2.40
2023-04-14T07:16:18.963Z,2.80
2023-04-14T07:18:46.848Z,3.22
2023-04-14T07:21:14.661Z,2.60
2023-04-14T07:23:42.577Z,2.72
2023-04-14T07:26:10.508Z,2.80
2023-04-14T07:28:39.959Z,2.83
2023-04-14T07:31:11.684Z,2.63
2023-04-14T07:33:39.798Z,3.00
2023-04-14T07:36:08.072Z,3.00
2023-04-14T07:38:36.451Z,2.47
2023-04-14T07:41:06.415Z,2.60
2023-04-14T07:43:35.554Z,2.60
2023-04-14T07:46:06.534Z,2.40
2023-04-14T07:48:35.654Z,2.55
2023-04-14T07:51:04.355Z,2.42
2023-04-14T07:53:32.460Z,2.53
2023-04-14T07:56:00.956Z,3.22
2023-04-14T07:58:29.624Z,2.35
2023-04-14T08:00:57.805Z,2.25
2023-04-14T08:03:27.274Z,2.20
2023-04-14T08:05:55.411Z,2.22
2023-04-14T08:08:23.737Z,2.30
2023-04-14T08:10:51.756Z,2.10
2023-04-14T08:13:19.602Z,2.35
2023-04-14T08:15:47.517Z,2.80
2023-04-14T08:18:15.470Z,2.28
2023-04-14T08:20:44.847Z,2.25
2023-04-14T08:23:12.832Z,2.40
2023-04-14T08:25:40.865Z,2.35
2023-04-14T08:28:08.858Z,2.50
2023-04-14T08:30:37.307Z,2.47
2023-04-14T08:33:05.296Z,2.58
2023-04-14T08:35:37.199Z,2.28
2023-04-14T08:38:10.870Z,2.40
2023-04-14T08:40:40.065Z,2.13
2023-04-14T08:43:08.082Z,3.17
2023-04-14T08:45:36.890Z,2.38
2023-04-14T08:48:05.776Z,2.08
2023-04-14T08:50:37.988Z,1.92
2023-04-14T08:53:11.191Z,2.40
2023-04-14T08:55:42.135Z,2.20
2023-04-14T08:58:11.490Z,2.03
2023-04-14T09:00:40.154Z,2.20
2023-04-14T09:03:09.282Z,2.17
2023-04-14T09:05:37.784Z,2.70
2023-04-14T09:08:05.859Z,2.05
2023-04-14T09:10:36.175Z,1.80
2023-04-14T09:13:06.487Z,1.50
2023-04-14T09:15:34.440Z,1.83
2023-04-14T09:18:02.917Z,1.98
2023-04-14T09:20:35.499Z,1.55
2023-04-14T09:23:05.155Z,1.67
2023-04-14T09:25:35.039Z,1.55
2023-04-14T09:28:03.011Z,1.60
2023-04-14T09:30:32.323Z,1.38
2023-04-14T09:33:00.909Z,1.30
2023-04-14T09:35:44.616Z,1.20
2023-04-14T09:38:12.472Z,1.42
2023-04-14T09:40:44.417Z,1.30
2023-04-14T09:43:25.196Z,1.30
2023-04-14T09:45:53.249Z,1.50
2023-04-14T09:48:21.828Z,1.20
2023-04-14T09:51:01.005Z,1.30
2023-04-14T09:53:30.151Z,1.33
2023-04-14T09:56:02.580Z,1.15
2023-04-14T09:58:32.696Z,1.67
2023-04-14T10:01:00.710Z,1.10
2023-04-14T10:03:37.480Z,1.40
2023-04-14T10:06:09.805Z,1.17
2023-04-14T10:08:42.664Z,1.00
2023-04-14T10:11:20.272Z,1.20
2023-04-14T10:13:49.752Z,1.05
2023-04-14T10:16:18.144Z,1.25
2023-04-14T10:18:46.664Z,1.20
2023-04-14T10:21:16.075Z,1.20
2023-04-14T10:23:45.201Z,1.30
2023-04-14T10:26:14.466Z,1.05
2023-04-14T10:28:45.879Z,1.30
2023-04-14T10:31:17.371Z,1.60
2023-04-14T10:33:45.451Z,1.30
2023-04-14T10:36:13.451Z,1.13
2023-04-14T10:38:43.515Z,1.20
2023-04-14T10:41:12.789Z,1.55
2023-04-14T10:43:41.586Z,1.20
2023-04-14T10:46:11.102Z,1.02
2023-04-14T10:48:41.359Z,1.13
2023-04-14T10:51:11.876Z,1.15
2023-04-14T10:53:45.850Z,0.98
2023-04-14T10:56:14.224Z,0.80
2023-04-14T10:58:42.136Z,1.20
2023-04-14T11:01:24.499Z,0.80
2023-04-14T11:03:53.145Z,1.08
2023-04-14T11:06:53.574Z,1.00
2023-04-14T11:09:33.238Z,1.15
2023-04-14T11:12:06.728Z,1.20
2023-04-14T11:14:36.538Z,1.00
2023-04-14T11:17:06.433Z,1.00
2023-04-14T11:19:34.517Z,1.00
2023-04-14T11:22:02.490Z,1.10
2023-04-14T11:24:30.395Z,0.90
2023-04-14T11:26:58.536Z,1.05
2023-04-14T11:29:26.363Z,0.98
2023-04-14T11:32:06.636Z,1.02
2023-04-14T11:34:35.039Z,1.10
2023-04-14T11:37:03.993Z,1.13
2023-04-14T11:39:32.218Z,1.00
2023-04-14T11:42:01.192Z,1.02
2023-04-14T11:44:30.309Z,0.80
2023-04-14T11:46:58.251Z,0.98
2023-04-14T11:49:37.841Z,1.02
2023-04-14T11:52:07.341Z,1.20
2023-04-14T11:54:39.320Z,0.70
2023-04-14T11:57:11.481Z,0.98
2023-04-14T11:59:43.612Z,0.95
2023-04-14T12:02:18.319Z,1.02
2023-04-14T12:04:50.474Z,1.20
2023-04-14T12:07:20.805Z,1.05
2023-04-14T12:09:50.373Z,1.10
2023-04-14T12:12:20.198Z,0.77
2023-04-14T12:14:49.557Z,1.00
2023-04-14T12:17:20.369Z,0.98
2023-04-14T12:19:50.071Z,1.10
2023-04-14T12:22:26.256Z,0.98
2023-04-14T12:24:54.264Z,0.85
2023-04-14T12:27:24.633Z,0.90
2023-04-14T12:29:53.062Z,0.90
2023-04-14T12:32:22.198Z,0.88
2023-04-14T12:34:58.640Z,0.90
2023-04-14T12:37:28.514Z,0.88
2023-04-14T12:39:59.500Z,1.02
2023-04-14T12:42:28.182Z,0.90
2023-04-14T12:44:57.816Z,1.00
2023-04-14T12:47:32.645Z,0.80
2023-04-14T12:50:03.391Z,0.90
2023-04-14T12:52:35.753Z,0.90
2023-04-14T12:55:04.782Z,0.70
2023-04-14T12:57:33.668Z,0.75
2023-04-14T13:00:02.277Z,0.70
2023-04-14T13:02:30.916Z,0.65
2023-04-14T13:04:58.965Z,0.68
2023-04-14T13:07:28.208Z,0.70
2023-04-14T13:09:56.027Z,0.75
2023-04-14T13:12:23.902Z,0.80
2023-04-14T13:14:53.424Z,0.60
2023-04-14T13:17:21.429Z,0.93
2023-04-14T13:19:49.380Z,0.63
2023-04-14T13:22:18.301Z,0.90
2023-04-14T13:24:47.592Z,0.80
2023-04-14T13:27:15.578Z,0.88
2023-04-14T13:29:43.621Z,0.90
2023-04-14T13:32:12.042Z,0.90
2023-04-14T13:34:40.966Z,0.90
2023-04-14T13:37:08.766Z,1.00
2023-04-14T13:39:36.701Z,0.80
2023-04-14T13:42:05.909Z,0.80
2023-04-14T13:44:35.251Z,0.70
2023-04-14T13:47:03.504Z,0.75
2023-04-14T13:49:31.762Z,0.70
2023-04-14T13:51:59.576Z,0.47
2023-04-14T13:54:27.519Z,0.77
2023-04-14T13:56:56.535Z,0.60
2023-04-14T13:59:25.822Z,0.68
2023-04-14T14:01:53.784Z,0.70
2023-04-14T14:04:21.964Z,0.80
2023-04-14T14:06:49.945Z,0.47
2023-04-14T14:09:17.917Z,0.50
2023-04-14T14:11:46.716Z,0.52
2023-04-14T14:14:14.935Z,0.70
2023-04-14T14:16:44.191Z,0.70
2023-04-14T14:19:15.124Z,0.90
2023-04-14T14:21:44.559Z,1.00
2023-04-14T14:24:13.155Z,0.60
2023-04-14T14:26:41.033Z,0.50
2023-04-14T14:29:09.216Z,0.70
2023-04-14T14:31:37.150Z,0.50
2023-04-14T14:34:06.535Z,0.60
2023-04-14T14:36:34.459Z,0.70
2023-04-14T14:39:04.002Z,0.70
2023-04-14T14:41:31.825Z,0.80
2023-04-14T14:44:01.223Z,0.70
2023-04-14T14:46:29.666Z,0.90
2023-04-14T14:48:57.874Z,0.60
2023-04-14T14:51:27.792Z,0.50
2023-04-14T14:54:04.230Z,1.00
2023-04-14T14:56:36.965Z,0.70
2023-04-14T14:59:05.029Z,0.80
2023-04-14T15:01:33.654Z,1.02
2023-04-14T15:04:02.021Z,0.47
2023-04-14T15:06:31.631Z,0.70
2023-04-14T15:09:00.110Z,0.70
2023-04-14T15:11:29.540Z,0.75
2023-04-14T15:13:58.478Z,0.70
2023-04-14T15:16:26.582Z,0.80
2023-04-14T15:18:54.627Z,0.63
2023-04-14T15:21:22.434Z,0.70
2023-04-14T15:23:52.019Z,0.75
2023-04-14T15:26:20.097Z,0.75
2023-04-14T15:28:48.339Z,0.80
2023-04-14T15:31:16.218Z,0.80
2023-04-14T15:33:45.673Z,0.80
2023-04-14T15:36:13.596Z,0.93
2023-04-14T15:38:42.273Z,0.73
2023-04-14T15:41:11.849Z,1.23
2023-04-14T15:43:39.727Z,0.90
2023-04-14T15:46:07.774Z,0.82
2023-04-14T15:48:35.679Z,0.70
2023-04-14T15:51:04.851Z,0.70
2023-04-14T15:53:32.982Z,0.88
2023-04-14T15:56:00.981Z,0.82
2023-04-14T15:58:30.302Z,0.65
2023-04-14T16:00:58.526Z,0.70
2023-04-14T16:03:26.602Z,0.65
2023-04-14T16:06:02.738Z,0.90
2023-04-14T16:08:30.800Z,0.98
2023-04-14T16:10:58.723Z,1.60
2023-04-14T16:13:26.717Z,1.40
2023-04-14T16:15:56.187Z,1.23
2023-04-14T16:18:24.148Z,1.17
2023-04-14T16:20:52.043Z,1.05
2023-04-14T16:23:19.964Z,0.88
2023-04-14T16:25:50.209Z,0.70
2023-04-14T16:28:18.597Z,0.80
2023-04-14T16:30:46.753Z,1.00
2023-04-14T16:33:16.192Z,0.90
2023-04-14T16:35:44.276Z,0.90
2023-04-14T16:38:12.278Z,0.90
2023-04-14T16:40:40.571Z,0.80
2023-04-14T16:43:09.611Z,0.90
2023-04-14T16:45:37.476Z,0.55
2023-04-14T16:48:05.610Z,0.90
2023-04-14T16:50:38.203Z,1.20
2023-04-14T16:55:34.732Z,1.00
2023-04-14T16:58:03.146Z,1.55
2023-04-14T17:00:31.073Z,1.70
2023-04-14T17:02:59.181Z,1.30
2023-04-14T17:05:27.202Z,1.10
2023-04-14T17:07:56.466Z,1.10
2023-04-14T17:10:26.167Z,1.30
2023-04-14T17:12:53.982Z,0.90
2023-04-14T17:15:21.944Z,1.48
2023-04-14T17:17:50.092Z,1.70
2023-04-14T17:20:18.187Z,1.40
2023-04-14T17:22:46.936Z,1.33
2023-04-14T17:25:20.584Z,1.10
2023-04-14T17:27:49.012Z,0.95
2023-04-14T17:30:16.903Z,0.70
2023-04-14T17:32:45.579Z,0.90
2023-04-14T17:35:14.576Z,1.00
2023-04-14T17:37:42.607Z,0.95
2023-04-14T17:40:11.607Z,1.00
2023-04-14T17:42:42.177Z,1.00
2023-04-14T17:45:10.962Z,1.10
2023-04-14T17:47:39.857Z,0.90
2023-04-14T17:50:09.264Z,0.90
2023-04-14T17:52:37.356Z,0.88
2023-04-14T17:55:07.156Z,1.00
2023-04-14T17:57:35.000Z,1.58
2023-04-14T18:00:05.846Z,1.10
2023-04-14T18:02:41.317Z,0.80
2023-04-14T18:05:10.916Z,0.88
2023-04-14T18:07:39.039Z,0.75
2023-04-14T18:10:08.240Z,0.85
2023-04-14T18:12:36.536Z,0.90
2023-04-14T18:15:07.099Z,0.88
2023-04-14T18:17:36.538Z,1.00
2023-04-14T18:20:04.781Z,0.82
2023-04-14T18:22:32.622Z,0.90
2023-04-14T18:25:00.602Z,1.00
2023-04-14T18:29:59.485Z,1.02
2023-04-14T18:32:30.103Z,1.00
2023-04-14T18:34:58.215Z,1.10
2023-04-14T18:37:26.242Z,0.98
2023-04-14T18:39:54.542Z,1.10
2023-04-14T18:42:22.733Z,1.13
2023-04-14T18:44:50.577Z,1.30
2023-04-14T18:47:22.344Z,1.90
2023-04-14T18:49:51.785Z,1.70
2023-04-14T18:52:19.939Z,1.50
2023-04-14T18:54:48.231Z,1.98
2023-04-14T18:57:16.303Z,1.85
2023-04-14T18:59:44.169Z,2.08
2023-04-14T19:02:13.671Z,1.80
2023-04-14T19:04:42.013Z,1.85
2023-04-14T19:07:11.300Z,1.73
2023-04-14T19:09:39.204Z,2.05
2023-04-14T19:12:15.577Z,1.80
2023-04-14T19:14:53.297Z,1.85
2023-04-14T19:17:21.203Z,1.80
2023-04-14T19:19:49.258Z,1.70
2023-04-14T19:22:18.644Z,1.85
2023-04-14T19:24:46.739Z,1.75
2023-04-14T19:27:14.770Z,2.15
2023-04-14T19:29:42.848Z,1.70
2023-04-14T19:32:10.743Z,1.90
2023-04-14T19:34:38.697Z,1.70
2023-04-14T19:37:06.587Z,1.70
2023-04-14T19:39:35.862Z,1.70
2023-04-14T19:42:04.060Z,1.83
2023-04-14T19:44:32.327Z,1.92
2023-04-14T19:47:00.376Z,1.95
2023-04-14T19:49:28.324Z,1.90
2023-04-14T19:51:56.289Z,1.75
2023-04-14T19:54:24.508Z,1.80
2023-04-14T19:56:54.214Z,2.17
2023-04-14T19:59:22.670Z,1.92
2023-04-14T20:01:51.479Z,2.42
2023-04-14T20:04:20.695Z,2.00
2023-04-14T20:06:49.608Z,1.88
2023-04-14T20:09:18.402Z,2.10
2023-04-14T20:11:50.197Z,2.03
2023-04-14T20:14:19.417Z,2.03
2023-04-14T20:16:47.254Z,1.90
2023-04-14T20:19:15.228Z,2.05
2023-04-14T20:21:43.671Z,2.03
2023-04-14T20:24:11.896Z,2.20
2023-04-14T20:26:44.162Z,2.25
2023-04-14T20:29:12.792Z,2.20
2023-04-14T20:31:44.167Z,2.10
2023-04-14T20:34:12.150Z,2.38
2023-04-14T20:36:40.044Z,2.72
2023-04-14T20:39:08.460Z,2.78
2023-04-14T20:41:36.583Z,2.53
2023-04-14T20:44:04.587Z,2.13
2023-04-14T20:46:35.333Z,2.50
2023-04-14T20:49:04.929Z,2.53
2023-04-14T20:51:33.240Z,2.28
2023-04-14T20:54:01.316Z,2.38
2023-04-14T20:56:30.679Z,2.17
2023-04-14T20:58:59.786Z,2.53
2023-04-14T21:01:27.999Z,2.55
2023-04-14T21:03:56.107Z,2.70
2023-04-14T21:06:25.831Z,2.28
2023-04-14T21:08:53.790Z,2.20
2023-04-14T21:11:21.644Z,2.60
2023-04-14T21:15:40.274Z,1.98
2023-04-14T21:16:37.460Z,2.65
2023-04-14T21:19:06.173Z,2.55
2023-04-14T21:21:35.705Z,2.58
2023-04-14T21:24:03.672Z,2.35
2023-04-14T21:26:31.801Z,2.30
2023-04-14T21:28:59.998Z,2.35
2023-04-14T21:31:28.458Z,2.60
2023-04-14T21:33:56.836Z,2.58
2023-04-14T21:36:25.210Z,2.47
2023-04-14T21:38:54.574Z,2.55
2023-04-14T21:41:22.429Z,2.50
2023-04-14T21:43:50.308Z,2.38
2023-04-14T21:46:18.364Z,2.13
2023-04-14T21:48:46.176Z,2.25
2023-04-14T21:51:14.350Z,2.60
2023-04-14T21:53:42.321Z,2.45
2023-04-14T21:56:12.945Z,2.80
2023-04-14T21:58:40.844Z,2.50
2023-04-14T22:01:09.930Z,2.65
2023-04-14T22:03:40.493Z,2.90
2023-04-14T22:06:29.788Z,2.80
2023-04-14T22:08:58.165Z,2.83
2023-04-14T22:11:28.712Z,2.50
2023-04-14T22:13:56.676Z,2.75
2023-04-14T22:16:25.470Z,2.58
2023-04-14T22:18:54.216Z,2.60
2023-04-14T22:21:22.250Z,2.40
2023-04-14T22:23:50.355Z,2.38
2023-04-14T22:26:18.253Z,2.85
2023-04-14T22:28:47.729Z,2.70
2023-04-14T22:31:15.562Z,2.75
2023-04-14T22:33:44.284Z,2.65
2023-04-14T22:36:12.591Z,2.80
2023-04-14T22:38:41.969Z,2.80
2023-04-14T22:41:09.888Z,2.88
2023-04-14T22:43:37.689Z,2.80
2023-04-14T22:46:06.975Z,2.75
2023-04-14T22:48:34.968Z,2.75
2023-04-14T22:51:02.883Z,2.85
2023-04-14T22:53:30.850Z,3.25
2023-04-14T22:55:59.118Z,2.75
2023-04-14T22:58:27.253Z,2.88
2023-04-14T23:00:55.078Z,3.20
2023-04-14T23:03:24.512Z,3.53
2023-04-14T23:05:52.972Z,3.40
2023-04-14T23:08:20.765Z,3.80
2023-04-14T23:10:48.541Z,4.88
2023-04-14T23:13:16.398Z,4.43
2023-04-14T23:15:44.279Z,4.85
2023-04-14T23:18:12.235Z,4.55
2023-04-14T23:20:41.429Z,4.70
2023-04-14T23:23:12.182Z,4.13
2023-04-14T23:25:40.209Z,3.90
2023-04-14T23:28:08.300Z,3.83
2023-04-14T23:30:36.829Z,3.83
2023-04-14T23:33:04.728Z,3.92
2023-04-14T23:35:32.680Z,3.35
2023-04-14T23:38:02.485Z,3.63
2023-04-14T23:40:30.613Z,3.60
2023-04-14T23:42:59.163Z,3.83
2023-04-14T23:45:27.303Z,3.80
2023-04-14T23:47:55.295Z,3.63
2023-04-14T23:50:23.453Z,4.00
2023-04-14T23:53:12.887Z,4.20
2023-04-14T23:55:40.982Z,3.92
2023-04-14T23:58:08.825Z,3.83
